Mill River, MA

4:53 PM EST on February 07, 2016 (GMT -0500)
South Mill River | | Change Station
CLOSE
Current Station
Personal Weather Station
Location: New Marlborough, MA
Elevation: 797 ft
Nearby Weather Stations

Elev 797 ft 42.10 °N, 73.27 °W | Updated 22 seconds ago

Clear
Clear
34.9 °F
Feels Like 35 °F
N
0.0
Wind Variable Wind from NNW
Gusts 0.0 mph

Today
High -- | Low -- °F
--% Chance of Precip.
Yesterday
High -- | Low -- °F
Precip. -- in
Pressure 30.03 in
Visibility 10.0 miles
Clouds Clear
Windchill 35 °F
Dew Point 24 °F
Humidity 65%
Rainfall 0.07 in
Snow Depth Not available.
7:00 AM 5:14 PM
Waning Crescent, 1% visible
METAR KPSF 072054Z AUTO 14003KT 10SM CLR 06/M08 A3000 RMK AO2 SLP168 T00561078 58014
Pressure 30.03 in
Visibility 10.0 miles
Clouds Clear
Windchill 35 °F
Dew Point 24 °F
Humidity 65%
Rainfall 0.07 in
Snow Depth Not available.
7:00 AM 5:14 PM
Waning Crescent, 1% visible
METAR KPSF 072054Z AUTO 14003KT 10SM CLR 06/M08 A3000 RMK AO2 SLP168 T00561078 58014

10-Day Weather Forecast

Almanac

Astronomy

Feb. 07, 2016 Rise Set
Actual Time
Civil Twilight
Nautical Twilight
Astronomical Twilight
Moon
Length of Visible Light
Length of Day
Tomorrow will be .
, % of the Moon is Illuminated

Today's Extremes

State Highs State Lows

Community

WunderPhotos

Upload Photos

1,891,304 photos uploaded!

WunderBlog® & News

Nearby

Air Quality

  Air Quality AQ Index Pollutant
Not available.

Snow Depth

Station Depth Elevation

Earthquake Activity

City Distance Mag. Time & Date
Minimum magnitude displayed is 2.5.

Coastal Water Temperatures

Place Temperature

Stations

Nearby Weather Stations

Station Location Temp. Windchill Dew Point Humidity Wind Precip. Elev Updated Type
                   

Watches & Warnings

There are currently no watches in effect.